Time;durP1;ratioP1;P1;durP2;ratioP2;P2;SDS_P1;SDS_P2;PMS_P1;PMS_P2;Temp;Humidity;BMP_temperature;BMP_pressure;BME280_temperature;BME280_humidity;BME280_pressure;Samples;Min_cycle;Max_cycle;Signal;HPM_P1;HPM_P2
2023/12/16 00:00:16;;;;;;;16.37;9.47;;;;;;;;;;4900904;28;20701;-84
2023/12/16 00:02:42;;;;;;;25.23;9.80;;;;;;;;;;4907376;28;20223;-85
2023/12/16 00:05:08;;;;;;;14.83;9.60;;;;;;;;;;4905704;28;20759;-87
2023/12/16 00:07:34;;;;;;;18.70;9.20;;;;;;;;;;4922677;28;20223;-86
2023/12/16 00:10:02;;;;;;;17.17;9.83;;;;;;;;;;4912596;29;20222;-85
2023/12/16 00:12:27;;;;;;;22.77;9.30;;;;;;;;;;4931756;28;20223;-86
2023/12/16 00:14:53;;;;;;;17.77;9.30;;;;;;;;;;4920968;28;20227;-86
2023/12/16 00:17:19;;;;;;;15.93;8.80;;;;;;;;;;4941484;28;20219;-85
2023/12/16 00:19:45;;;;;;;18.07;10.00;;;;;;;;;;4918368;28;20584;-87
2023/12/16 00:22:13;;;;;;;18.07;9.47;;;;;;;;;;4922113;28;20222;-86
2023/12/16 00:24:38;;;;;;;20.03;9.90;;;;;;;;;;4948444;28;20235;-86
2023/12/16 00:27:06;;;;;;;26.67;10.07;;;;;;;;;;4895948;28;20216;-82
2023/12/16 00:29:32;;;;;;;18.63;9.83;;;;;;;;;;4904623;28;20234;-86
2023/12/16 00:31:57;;;;;;;22.80;10.00;;;;;;;;;;4921902;29;20207;-87
2023/12/16 00:34:23;;;;;;;18.10;10.07;;;;;;;;;;4916135;28;20294;-86
2023/12/16 00:36:50;;;;;;;24.77;9.87;;;;;;;;;;4898930;28;20226;-86
2023/12/16 00:39:19;;;;;;;18.43;9.73;;;;;;;;;;4919210;28;20282;-86
2023/12/16 00:41:44;;;;;;;22.47;9.37;;;;;;;;;;4906273;29;20227;-83
2023/12/16 00:44:10;;;;;;;22.67;10.60;;;;;;;;;;4919803;28;20219;-86
2023/12/16 00:46:35;;;;;;;22.37;10.07;;;;;;;;;;4930689;28;20238;-83
2023/12/16 00:49:04;;;;;;;22.00;9.77;;;;;;;;;;4921267;28;20226;-86
2023/12/16 00:51:29;;;;;;;21.27;9.70;;;;;;;;;;4931122;28;20241;-87
2023/12/16 00:53:55;;;;;;;21.80;10.07;;;;;;;;;;4917436;29;20456;-85
2023/12/16 00:56:24;;;;;;;18.77;10.53;;;;;;;;;;4940559;28;20214;-86
2023/12/16 00:58:49;;;;;;;19.40;9.73;;;;;;;;;;4919601;28;20270;-86
2023/12/16 01:01:15;;;;;;;24.90;10.60;;;;;;;;;;4916964;28;20868;-85
2023/12/16 01:03:41;;;;;;;20.93;10.47;;;;;;;;;;4922144;29;20227;-87
2023/12/16 01:06:09;;;;;;;17.73;8.77;;;;;;;;;;4936404;28;20229;-87
2023/12/16 01:08:39;;;;;;;25.17;10.63;;;;;;;;;;4936502;28;20227;-86
2023/12/16 01:11:05;;;;;;;23.43;9.90;;;;;;;;;;4927611;28;20312;-85
2023/12/16 01:13:33;;;;;;;19.77;10.43;;;;;;;;;;4935699;28;20698;-86
2023/12/16 01:15:59;;;;;;;21.23;10.37;;;;;;;;;;4919647;29;20314;-86
2023/12/16 01:18:24;;;;;;;20.50;9.17;;;;;;;;;;4918968;28;20246;-86
2023/12/16 01:20:52;;;;;;;16.17;8.63;;;;;;;;;;4907048;28;20241;-88
2023/12/16 01:23:18;;;;;;;15.43;8.40;;;;;;;;;;4917267;28;20728;-86
2023/12/16 01:25:43;;;;;;;21.70;9.43;;;;;;;;;;4923773;28;20273;-87
2023/12/16 01:28:09;;;;;;;16.53;8.63;;;;;;;;;;4913970;28;20285;-87
2023/12/16 01:30:39;;;;;;;13.23;8.70;;;;;;;;;;4921109;28;20219;-84
2023/12/16 01:33:07;;;;;;;19.97;9.47;;;;;;;;;;4953712;28;20239;-85
2023/12/16 01:35:33;;;;;;;17.43;8.90;;;;;;;;;;4917460;28;20233;-86
2023/12/16 01:38:01;;;;;;;17.33;8.57;;;;;;;;;;4929822;29;20285;-87
2023/12/16 01:40:27;;;;;;;14.83;7.73;;;;;;;;;;4921822;28;20323;-86
2023/12/16 01:42:55;;;;;;;18.00;8.27;;;;;;;;;;4915241;28;20290;-85
2023/12/16 01:45:23;;;;;;;18.13;9.07;;;;;;;;;;4918388;28;20227;-85
2023/12/16 01:47:51;;;;;;;17.53;8.43;;;;;;;;;;4920436;28;20245;-87
2023/12/16 01:50:17;;;;;;;15.27;8.57;;;;;;;;;;4911336;28;20709;-86
2023/12/16 01:52:43;;;;;;;19.60;8.77;;;;;;;;;;4921484;28;20230;-86
2023/12/16 01:55:09;;;;;;;15.83;8.43;;;;;;;;;;4918231;28;20227;-87
2023/12/16 01:57:35;;;;;;;19.33;9.40;;;;;;;;;;4910376;28;20584;-86
2023/12/16 02:00:03;;;;;;;21.27;9.20;;;;;;;;;;4899706;29;20571;-88
2023/12/16 02:02:41;;;;;;;18.10;8.97;;;;;;;;;;4921764;28;20230;-85
2023/12/16 02:05:09;;;;;;;17.93;9.00;;;;;;;;;;4900188;28;20227;-87
2023/12/16 02:07:34;;;;;;;17.90;8.60;;;;;;;;;;4918879;28;20241;-85
2023/12/16 02:10:02;;;;;;;20.03;8.77;;;;;;;;;;4934367;29;20227;-86
2023/12/16 02:12:30;;;;;;;17.60;8.10;;;;;;;;;;4939629;28;20219;-85
2023/12/16 02:14:56;;;;;;;21.17;8.97;;;;;;;;;;4921837;28;20265;-86
2023/12/16 02:17:21;;;;;;;18.93;8.90;;;;;;;;;;4926955;28;20233;-87
2023/12/16 02:19:49;;;;;;;13.07;7.80;;;;;;;;;;4922093;28;20590;-88
2023/12/16 02:22:15;;;;;;;15.57;8.40;;;;;;;;;;4920149;28;20215;-87
2023/12/16 02:24:42;;;;;;;18.53;8.33;;;;;;;;;;4940684;28;20243;-86
2023/12/16 02:27:10;;;;;;;13.37;7.60;;;;;;;;;;4941224;28;20239;-88
2023/12/16 02:29:36;;;;;;;14.37;8.13;;;;;;;;;;4919864;29;20235;-86
2023/12/16 02:32:02;;;;;;;14.83;7.87;;;;;;;;;;4934793;28;20276;-85
2023/12/16 02:34:28;;;;;;;16.77;8.17;;;;;;;;;;4921987;29;20231;-86
2023/12/16 02:36:54;;;;;;;14.93;7.70;;;;;;;;;;4933045;28;20238;-89
2023/12/16 02:39:24;;;;;;;19.10;7.80;;;;;;;;;;4902675;28;20594;-84
2023/12/16 02:41:54;;;;;;;16.27;8.00;;;;;;;;;;4910480;29;20226;-87
2023/12/16 02:44:24;;;;;;;14.10;8.17;;;;;;;;;;4919541;28;20306;-85
2023/12/16 02:46:52;;;;;;;16.33;7.93;;;;;;;;;;4925072;28;20230;-86
2023/12/16 02:49:18;;;;;;;22.17;7.50;;;;;;;;;;4920775;28;20224;-86
2023/12/16 02:51:48;;;;;;;13.57;7.00;;;;;;;;;;4922191;28;20233;-86
2023/12/16 02:54:19;;;;;;;14.00;7.03;;;;;;;;;;4935100;28;20238;-85
2023/12/16 02:56:47;;;;;;;13.70;7.07;;;;;;;;;;4925942;28;20242;-85
2023/12/16 02:59:12;;;;;;;16.53;7.50;;;;;;;;;;4939953;28;20210;-85
2023/12/16 03:01:38;;;;;;;14.40;7.53;;;;;;;;;;4922369;29;20235;-85
2023/12/16 03:04:08;;;;;;;12.33;7.13;;;;;;;;;;4922081;28;20273;-84
2023/12/16 03:06:35;;;;;;;13.80;7.60;;;;;;;;;;4920553;29;20243;-86
2023/12/16 03:09:04;;;;;;;15.90;6.90;;;;;;;;;;4924413;28;20314;-85
2023/12/16 03:11:29;;;;;;;16.37;6.67;;;;;;;;;;4919522;29;20390;-87
2023/12/16 03:13:57;;;;;;;18.50;7.20;;;;;;;;;;4931879;28;20223;-85
2023/12/16 03:16:23;;;;;;;12.80;6.97;;;;;;;;;;4924792;28;20234;-86
2023/12/16 03:18:48;;;;;;;13.80;6.47;;;;;;;;;;4926717;28;20239;-83
2023/12/16 03:21:14;;;;;;;14.40;6.70;;;;;;;;;;4957658;28;20223;-83
2023/12/16 03:23:42;;;;;;;13.53;7.13;;;;;;;;;;4930539;29;20227;-87
2023/12/16 03:26:07;;;;;;;19.07;6.57;;;;;;;;;;4906937;28;20319;-87
2023/12/16 03:28:33;;;;;;;12.53;6.13;;;;;;;;;;4905901;29;20251;-86
2023/12/16 03:31:01;;;;;;;14.13;5.90;;;;;;;;;;4917602;28;20233;-85
2023/12/16 03:33:29;;;;;;;11.37;5.97;;;;;;;;;;4924387;28;20297;-86
2023/12/16 03:35:56;;;;;;;11.73;5.73;;;;;;;;;;4920820;28;20232;-88
2023/12/16 03:38:22;;;;;;;14.60;6.00;;;;;;;;;;4939791;28;20233;-86
2023/12/16 03:40:50;;;;;;;12.27;5.80;;;;;;;;;;4917907;29;20239;-84
2023/12/16 03:43:18;;;;;;;15.23;5.90;;;;;;;;;;4902388;28;20246;-85
2023/12/16 03:45:43;;;;;;;13.73;6.10;;;;;;;;;;4936870;28;20243;-85
2023/12/16 03:48:09;;;;;;;10.73;5.83;;;;;;;;;;4907746;28;20795;-85
2023/12/16 03:50:37;;;;;;;12.10;5.33;;;;;;;;;;4924630;29;20311;-87
2023/12/16 03:53:02;;;;;;;12.23;4.90;;;;;;;;;;4920478;28;20238;-86
2023/12/16 03:55:28;;;;;;;12.53;5.00;;;;;;;;;;4917613;29;20227;-85
2023/12/16 03:57:53;;;;;;;12.20;5.33;;;;;;;;;;4917806;28;20227;-86
2023/12/16 04:04:06;;;;;;;8.20;5.10;;;;;;;;;;4952319;28;20246;-86
2023/12/16 04:06:36;;;;;;;8.30;4.60;;;;;;;;;;4920827;29;20716;-86
2023/12/16 04:09:06;;;;;;;19.00;5.57;;;;;;;;;;4910571;28;20250;-85
2023/12/16 04:11:32;;;;;;;11.77;5.37;;;;;;;;;;4935556;28;20241;-86
2023/12/16 04:13:59;;;;;;;8.57;4.10;;;;;;;;;;4924721;28;20223;-87
2023/12/16 04:16:25;;;;;;;10.53;4.67;;;;;;;;;;4907547;28;20602;-86
2023/12/16 04:18:53;;;;;;;13.53;4.93;;;;;;;;;;4904705;28;20610;-87
2023/12/16 04:21:21;;;;;;;12.20;5.60;;;;;;;;;;4925638;28;20225;-85
2023/12/16 04:23:46;;;;;;;8.20;4.67;;;;;;;;;;4926415;29;20230;-87
2023/12/16 04:26:12;;;;;;;9.00;5.47;;;;;;;;;;4909622;28;20237;-87
2023/12/16 04:28:42;;;;;;;5.13;3.77;;;;;;;;;;4925534;29;20233;-85
2023/12/16 04:31:13;;;;;;;12.43;3.40;;;;;;;;;;4917777;28;20610;-86
2023/12/16 04:33:40;;;;;;;9.53;4.00;;;;;;;;;;4939573;28;20226;-87
2023/12/16 04:36:11;;;;;;;9.80;3.70;;;;;;;;;;4921675;28;20719;-84
2023/12/16 04:38:39;;;;;;;8.40;3.27;;;;;;;;;;4929182;29;20242;-86
2023/12/16 04:41:07;;;;;;;9.50;3.87;;;;;;;;;;4927855;28;20226;-85
2023/12/16 04:43:32;;;;;;;7.70;3.70;;;;;;;;;;4905648;29;20219;-86
2023/12/16 04:46:00;;;;;;;5.97;2.73;;;;;;;;;;4920742;28;20233;-85
2023/12/16 04:48:25;;;;;;;9.97;3.13;;;;;;;;;;4924504;28;20243;-85
2023/12/16 04:50:51;;;;;;;8.40;3.50;;;;;;;;;;4945204;28;20234;-84
2023/12/16 04:53:16;;;;;;;8.70;3.60;;;;;;;;;;4936784;28;20210;-84
2023/12/16 04:55:44;;;;;;;7.13;3.30;;;;;;;;;;4935617;29;20303;-85
2023/12/16 04:58:10;;;;;;;9.57;3.20;;;;;;;;;;4933752;28;20250;-85
2023/12/16 05:00:37;;;;;;;4.23;2.93;;;;;;;;;;4916379;29;20230;-87
2023/12/16 05:03:05;;;;;;;5.77;3.00;;;;;;;;;;4941970;28;20229;-85
2023/12/16 05:05:31;;;;;;;6.00;3.20;;;;;;;;;;4930702;29;20238;-85
2023/12/16 05:07:56;;;;;;;7.37;3.03;;;;;;;;;;4939964;28;20222;-85
2023/12/16 05:10:22;;;;;;;7.23;3.10;;;;;;;;;;4919153;28;20224;-85
2023/12/16 05:12:47;;;;;;;8.40;3.23;;;;;;;;;;4937819;28;20214;-85
2023/12/16 05:15:20;;;;;;;11.70;3.43;;;;;;;;;;4941346;28;20278;-85
2023/12/16 05:17:45;;;;;;;6.33;2.97;;;;;;;;;;4939619;29;20255;-85
2023/12/16 05:20:11;;;;;;;5.43;3.33;;;;;;;;;;4947492;28;20231;-86
2023/12/16 05:22:40;;;;;;;8.40;3.50;;;;;;;;;;4930966;29;20249;-84
2023/12/16 05:25:06;;;;;;;7.47;3.27;;;;;;;;;;4952388;28;20226;-85
2023/12/16 05:27:32;;;;;;;6.47;2.73;;;;;;;;;;4921134;29;20221;-85
2023/12/16 05:29:58;;;;;;;8.17;3.13;;;;;;;;;;4922028;28;20241;-84
2023/12/16 05:32:26;;;;;;;7.80;3.13;;;;;;;;;;4926779;28;20227;-86
2023/12/16 05:34:52;;;;;;;9.00;3.50;;;;;;;;;;4923805;29;20238;-85
2023/12/16 05:37:19;;;;;;;8.47;3.50;;;;;;;;;;4923005;28;20207;-85
2023/12/16 05:39:45;;;;;;;7.00;3.30;;;;;;;;;;4954785;29;20230;-85
2023/12/16 05:42:18;;;;;;;8.93;3.20;;;;;;;;;;4923628;28;20243;-84
2023/12/16 05:44:46;;;;;;;7.70;3.20;;;;;;;;;;4940395;29;20239;-85
2023/12/16 05:47:11;;;;;;;7.73;3.47;;;;;;;;;;4957288;28;20207;-85
2023/12/16 05:49:37;;;;;;;6.57;3.13;;;;;;;;;;4959659;28;20291;-85
2023/12/16 05:52:05;;;;;;;5.80;3.03;;;;;;;;;;4959360;28;20282;-85
2023/12/16 05:54:30;;;;;;;8.70;3.27;;;;;;;;;;4926425;29;20657;-84
2023/12/16 05:56:56;;;;;;;6.00;2.83;;;;;;;;;;4909353;29;20231;-86
2023/12/16 05:59:24;;;;;;;6.13;2.87;;;;;;;;;;4938877;28;20241;-86
2023/12/16 06:01:50;;;;;;;10.20;3.00;;;;;;;;;;4924831;29;20710;-86
2023/12/16 06:04:15;;;;;;;6.10;2.93;;;;;;;;;;4924812;28;20231;-87
2023/12/16 06:06:45;;;;;;;5.60;2.90;;;;;;;;;;4925813;29;20249;-86
2023/12/16 06:09:11;;;;;;;13.30;3.37;;;;;;;;;;4923381;28;20235;-87
2023/12/16 06:11:37;;;;;;;7.07;2.93;;;;;;;;;;4908613;29;20241;-86
2023/12/16 06:14:07;;;;;;;5.63;2.93;;;;;;;;;;4927462;28;20237;-87
2023/12/16 06:16:33;;;;;;;9.70;3.37;;;;;;;;;;4926011;29;20223;-87
2023/12/16 06:18:59;;;;;;;8.20;3.27;;;;;;;;;;4936939;28;20613;-86
2023/12/16 06:21:25;;;;;;;6.93;2.77;;;;;;;;;;4912446;28;20225;-86
2023/12/16 06:23:52;;;;;;;6.30;2.77;;;;;;;;;;4923649;29;20278;-86
2023/12/16 06:26:18;;;;;;;8.23;2.80;;;;;;;;;;4919898;28;20220;-85
2023/12/16 06:28:46;;;;;;;9.20;2.77;;;;;;;;;;4922542;29;20270;-86
2023/12/16 06:31:17;;;;;;;7.20;2.77;;;;;;;;;;4931248;28;20231;-86
2023/12/16 06:33:43;;;;;;;7.57;3.30;;;;;;;;;;4950032;28;20223;-87
2023/12/16 06:36:09;;;;;;;7.43;3.37;;;;;;;;;;4913782;28;20294;-86
2023/12/16 06:38:39;;;;;;;5.83;3.17;;;;;;;;;;4913439;29;20227;-86
2023/12/16 06:41:05;;;;;;;10.47;2.93;;;;;;;;;;4942685;28;20246;-85
2023/12/16 06:43:30;;;;;;;5.40;2.63;;;;;;;;;;4934168;29;20361;-85
2023/12/16 06:45:58;;;;;;;11.20;2.93;;;;;;;;;;4932064;29;20234;-85
2023/12/16 06:48:24;;;;;;;7.87;2.20;;;;;;;;;;4925533;28;20289;-85
2023/12/16 06:50:49;;;;;;;6.50;2.70;;;;;;;;;;4918767;29;20227;-87
2023/12/16 06:53:16;;;;;;;6.23;2.50;;;;;;;;;;4916968;28;20214;-86
2023/12/16 06:55:42;;;;;;;7.07;2.60;;;;;;;;;;4935178;29;20833;-86
2023/12/16 06:58:07;;;;;;;9.87;2.77;;;;;;;;;;4925195;28;20275;-85
2023/12/16 07:00:33;;;;;;;6.70;2.70;;;;;;;;;;4929271;29;20875;-85
2023/12/16 07:03:02;;;;;;;8.17;2.80;;;;;;;;;;4906659;29;20254;-83
2023/12/16 07:05:33;;;;;;;9.10;2.70;;;;;;;;;;4929748;28;20269;-85
2023/12/16 07:07:59;;;;;;;6.87;2.67;;;;;;;;;;4923470;28;20653;-86
2023/12/16 07:10:25;;;;;;;7.43;2.83;;;;;;;;;;4918405;28;20230;-85
2023/12/16 07:12:55;;;;;;;6.27;3.30;;;;;;;;;;4922615;28;20791;-87
2023/12/16 07:15:26;;;;;;;6.30;2.90;;;;;;;;;;4924524;28;20231;-84
2023/12/16 07:17:57;;;;;;;11.13;3.50;;;;;;;;;;4924408;29;20700;-86
2023/12/16 07:20:22;;;;;;;6.47;2.70;;;;;;;;;;4914131;28;20227;-85
2023/12/16 07:22:48;;;;;;;7.60;3.20;;;;;;;;;;4928631;28;20219;-85
2023/12/16 07:25:15;;;;;;;7.73;2.83;;;;;;;;;;4928640;28;20222;-86
2023/12/16 07:27:40;;;;;;;10.60;3.00;;;;;;;;;;4916359;29;20685;-85
2023/12/16 07:30:06;;;;;;;9.13;3.10;;;;;;;;;;4935560;28;20320;-85
2023/12/16 07:32:32;;;;;;;7.23;2.90;;;;;;;;;;4946464;28;20222;-86
2023/12/16 07:35:02;;;;;;;8.90;3.10;;;;;;;;;;4936715;29;20263;-84
2023/12/16 07:37:28;;;;;;;11.27;3.00;;;;;;;;;;4926125;28;20226;-84
2023/12/16 07:39:56;;;;;;;9.83;3.23;;;;;;;;;;4938058;29;20283;-83
2023/12/16 07:42:21;;;;;;;11.33;2.97;;;;;;;;;;4935778;28;20803;-82
2023/12/16 07:44:49;;;;;;;10.87;3.10;;;;;;;;;;4939590;29;20219;-86
2023/12/16 07:47:20;;;;;;;7.50;2.60;;;;;;;;;;4942195;28;20310;-86
2023/12/16 07:49:48;;;;;;;8.93;3.37;;;;;;;;;;4923766;29;20226;-87
2023/12/16 07:52:15;;;;;;;7.00;3.10;;;;;;;;;;4933664;28;20221;-87
2023/12/16 07:54:41;;;;;;;7.93;3.80;;;;;;;;;;4952332;28;20222;-88
2023/12/16 07:57:10;;;;;;;10.50;3.27;;;;;;;;;;4925850;28;20230;-86
2023/12/16 07:59:35;;;;;;;8.73;2.87;;;;;;;;;;4903808;29;20227;-88
2023/12/16 08:02:06;;;;;;;9.53;3.13;;;;;;;;;;4936699;28;20238;-86
2023/12/16 08:04:43;;;;;;;6.47;2.90;;;;;;;;;;4909037;28;20229;-87
2023/12/16 08:07:08;;;;;;;8.43;2.83;;;;;;;;;;4944499;28;20524;-88
2023/12/16 08:09:34;;;;;;;11.00;3.30;;;;;;;;;;4900438;29;20231;-88
2023/12/16 08:12:04;;;;;;;8.27;3.03;;;;;;;;;;4924494;28;20221;-86
2023/12/16 08:14:29;;;;;;;9.17;2.97;;;;;;;;;;4905869;28;20223;-88
2023/12/16 08:16:55;;;;;;;8.23;3.20;;;;;;;;;;4924816;29;20211;-87
2023/12/16 08:19:25;;;;;;;7.37;3.07;;;;;;;;;;4917537;28;20221;-85
2023/12/16 08:21:53;;;;;;;12.43;3.33;;;;;;;;;;4904989;29;20305;-85
2023/12/16 08:24:19;;;;;;;8.20;3.23;;;;;;;;;;4916548;28;20241;-88
2023/12/16 08:26:48;;;;;;;7.80;3.40;;;;;;;;;;4919229;29;20716;-86
2023/12/16 08:29:18;;;;;;;5.70;3.03;;;;;;;;;;4906924;28;20274;-89
2023/12/16 08:31:44;;;;;;;11.00;3.40;;;;;;;;;;4903402;29;20219;-87
2023/12/16 08:34:11;;;;;;;6.70;3.40;;;;;;;;;;4918281;28;20677;-85
2023/12/16 08:36:37;;;;;;;11.83;3.50;;;;;;;;;;4901139;29;20226;-87
2023/12/16 08:39:02;;;;;;;8.13;3.40;;;;;;;;;;4954835;28;20290;-87
2023/12/16 08:41:30;;;;;;;7.80;3.80;;;;;;;;;;4923196;28;20235;-86
2023/12/16 08:43:56;;;;;;;6.97;3.20;;;;;;;;;;4933700;29;20215;-85
2023/12/16 08:46:23;;;;;;;9.47;3.90;;;;;;;;;;4917994;28;20276;-86
2023/12/16 08:48:49;;;;;;;7.03;3.27;;;;;;;;;;4906026;29;20238;-86
2023/12/16 08:51:23;;;;;;;10.17;3.60;;;;;;;;;;4899058;28;20563;-86
2023/12/16 08:53:49;;;;;;;12.33;3.43;;;;;;;;;;4936870;29;20283;-88
2023/12/16 08:56:17;;;;;;;10.00;3.67;;;;;;;;;;4922778;28;20251;-86
2023/12/16 08:58:45;;;;;;;12.17;4.00;;;;;;;;;;4940478;28;20759;-87
2023/12/16 09:01:10;;;;;;;12.47;3.53;;;;;;;;;;4908496;28;20668;-87
2023/12/16 09:03:36;;;;;;;9.23;3.43;;;;;;;;;;4923700;28;20229;-84
2023/12/16 09:06:02;;;;;;;12.50;3.67;;;;;;;;;;4921685;29;20237;-86
2023/12/16 09:08:30;;;;;;;10.73;3.77;;;;;;;;;;4925193;29;20230;-87
2023/12/16 09:10:57;;;;;;;7.90;3.53;;;;;;;;;;4916802;29;20693;-85
2023/12/16 09:13:26;;;;;;;8.30;3.67;;;;;;;;;;4913600;28;20225;-84
2023/12/16 09:15:51;;;;;;;8.17;3.80;;;;;;;;;;4920610;29;20306;-87
2023/12/16 09:18:17;;;;;;;9.33;4.00;;;;;;;;;;4913595;28;20248;-86
2023/12/16 09:20:47;;;;;;;11.33;3.80;;;;;;;;;;4939554;28;20593;-86
2023/12/16 09:23:18;;;;;;;10.47;3.50;;;;;;;;;;4908837;28;20214;-85
2023/12/16 09:25:52;;;;;;;11.43;3.70;;;;;;;;;;4927281;28;20310;-86
2023/12/16 09:28:20;;;;;;;7.23;2.93;;;;;;;;;;4908008;28;20233;-87
2023/12/16 09:30:46;;;;;;;9.77;3.70;;;;;;;;;;4965915;28;20219;-84
2023/12/16 09:33:13;;;;;;;10.67;3.90;;;;;;;;;;4919680;28;20215;-83
2023/12/16 09:35:42;;;;;;;11.23;4.40;;;;;;;;;;4922631;28;20225;-85
2023/12/16 09:38:10;;;;;;;12.67;3.50;;;;;;;;;;4931717;28;20296;-87
2023/12/16 09:40:40;;;;;;;8.70;3.90;;;;;;;;;;4922622;28;20258;-86
2023/12/16 09:43:14;;;;;;;8.63;4.00;;;;;;;;;;4905014;28;20223;-89
2023/12/16 09:45:39;;;;;;;8.10;4.20;;;;;;;;;;4939311;28;20341;-87
2023/12/16 09:48:05;;;;;;;10.40;3.93;;;;;;;;;;4939120;28;20218;-86
2023/12/16 09:50:33;;;;;;;14.47;4.00;;;;;;;;;;4906970;29;20242;-82
2023/12/16 09:53:01;;;;;;;11.97;4.57;;;;;;;;;;4923641;29;20226;-85
2023/12/16 09:55:32;;;;;;;8.77;4.27;;;;;;;;;;4917267;28;20278;-89
2023/12/16 09:57:58;;;;;;;8.03;3.83;;;;;;;;;;4920754;29;20353;-86
2023/12/16 10:00:26;;;;;;;11.77;3.77;;;;;;;;;;4923306;28;20331;-87
2023/12/16 10:02:58;;;;;;;10.20;4.03;;;;;;;;;;4945419;29;20290;-85
2023/12/16 10:05:28;;;;;;;8.50;4.40;;;;;;;;;;4931643;28;20243;-86
2023/12/16 10:07:59;;;;;;;15.27;4.60;;;;;;;;;;4942071;28;20297;-83
2023/12/16 10:10:24;;;;;;;8.27;4.47;;;;;;;;;;4935138;28;20238;-87
2023/12/16 10:12:52;;;;;;;10.70;4.40;;;;;;;;;;4926030;29;20222;-86
2023/12/16 10:15:33;;;;;;;14.07;4.43;;;;;;;;;;4949060;28;20234;-86
2023/12/16 10:18:02;;;;;;;12.03;4.50;;;;;;;;;;4952211;28;20223;-88
2023/12/16 10:20:28;;;;;;;13.30;4.83;;;;;;;;;;4925277;28;20236;-86
2023/12/16 10:22:54;;;;;;;9.93;4.40;;;;;;;;;;4910867;29;20229;-87
2023/12/16 10:25:24;;;;;;;12.00;4.87;;;;;;;;;;4919354;28;20674;-87
2023/12/16 10:27:57;;;;;;;14.13;4.67;;;;;;;;;;4915715;29;20268;-88
2023/12/16 10:30:23;;;;;;;13.00;4.90;;;;;;;;;;4923568;28;20968;-86
2023/12/16 10:33:02;;;;;;;11.23;4.80;;;;;;;;;;4940831;28;20374;-88
2023/12/16 10:35:32;;;;;;;11.23;4.40;;;;;;;;;;4933015;28;20231;-80
2023/12/16 10:38:02;;;;;;;10.47;4.80;;;;;;;;;;4952741;28;20230;-79
2023/12/16 10:40:27;;;;;;;14.83;4.73;;;;;;;;;;4921980;28;20223;-78
2023/12/16 10:42:53;;;;;;;10.63;4.77;;;;;;;;;;4944565;28;20234;-78
2023/12/16 10:45:21;;;;;;;10.57;4.90;;;;;;;;;;4950140;28;20298;-78
2023/12/16 10:47:49;;;;;;;12.70;4.93;;;;;;;;;;4927182;28;20223;-77
2023/12/16 10:50:15;;;;;;;9.43;4.73;;;;;;;;;;4941939;28;20226;-77
2023/12/16 10:52:55;;;;;;;15.13;5.10;;;;;;;;;;4913378;28;20317;-77
2023/12/16 10:55:28;;;;;;;14.50;5.73;;;;;;;;;;4912642;28;20235;-77
2023/12/16 10:58:12;;;;;;;13.30;4.80;;;;;;;;;;4918101;29;20224;-77
2023/12/16 11:00:38;;;;;;;13.27;5.33;;;;;;;;;;4943097;28;20262;-79
2023/12/16 11:03:18;;;;;;;11.93;5.00;;;;;;;;;;4948691;28;20250;-78
2023/12/16 11:05:49;;;;;;;10.53;5.23;;;;;;;;;;4936557;28;20238;-78
2023/12/16 11:08:17;;;;;;;10.63;5.23;;;;;;;;;;4936673;28;20226;-79
2023/12/16 11:10:43;;;;;;;11.80;5.27;;;;;;;;;;4914207;28;20585;-78
2023/12/16 11:13:08;;;;;;;16.17;5.67;;;;;;;;;;4904571;28;20230;-79
2023/12/16 11:15:34;;;;;;;10.37;4.90;;;;;;;;;;4929660;28;20228;-78
2023/12/16 11:18:08;;;;;;;19.07;6.33;;;;;;;;;;4924484;29;20231;-77
2023/12/16 11:20:38;;;;;;;21.60;6.17;;;;;;;;;;4930435;29;20342;-77
2023/12/16 11:23:04;;;;;;;17.93;6.00;;;;;;;;;;4921174;28;20234;-77
2023/12/16 11:25:32;;;;;;;13.47;5.87;;;;;;;;;;4941575;28;20786;-77
2023/12/16 11:27:59;;;;;;;17.37;6.27;;;;;;;;;;4919680;29;20309;-79
2023/12/16 11:30:26;;;;;;;10.77;5.73;;;;;;;;;;4928441;28;20243;-78
2023/12/16 11:32:55;;;;;;;13.43;5.63;;;;;;;;;;4917944;29;20287;-77
2023/12/16 11:35:38;;;;;;;15.00;6.57;;;;;;;;;;4917892;28;20676;-78
2023/12/16 11:38:05;;;;;;;12.10;5.70;;;;;;;;;;4941527;28;20231;-79
2023/12/16 11:40:41;;;;;;;18.47;5.77;;;;;;;;;;4927833;28;20274;-77
2023/12/16 11:43:07;;;;;;;14.40;6.50;;;;;;;;;;4919675;28;20218;-78
2023/12/16 11:45:44;;;;;;;13.73;6.30;;;;;;;;;;4901283;28;20604;-77
2023/12/16 11:48:11;;;;;;;17.27;7.03;;;;;;;;;;4951561;28;20597;-79
2023/12/16 11:50:37;;;;;;;14.37;6.80;;;;;;;;;;4928855;28;20238;-78
2023/12/16 11:53:03;;;;;;;16.93;7.83;;;;;;;;;;4944551;28;20691;-78
2023/12/16 11:55:29;;;;;;;14.10;7.57;;;;;;;;;;4921266;29;20289;-88
2023/12/16 11:57:59;;;;;;;15.13;7.10;;;;;;;;;;4918745;29;20219;-85
2023/12/16 12:00:25;;;;;;;19.87;7.70;;;;;;;;;;4925442;28;20245;-88
2023/12/16 12:02:51;;;;;;;17.00;7.27;;;;;;;;;;4908880;28;20223;-86
2023/12/16 12:05:18;;;;;;;13.40;7.23;;;;;;;;;;4908785;28;20309;-87
2023/12/16 12:07:46;;;;;;;17.67;8.03;;;;;;;;;;4924800;28;20289;-88
2023/12/16 12:10:14;;;;;;;14.20;6.83;;;;;;;;;;4918734;28;20230;-86
2023/12/16 12:12:40;;;;;;;17.07;7.13;;;;;;;;;;4935191;28;20220;-85
2023/12/16 12:15:07;;;;;;;19.43;8.33;;;;;;;;;;4926631;28;20214;-88
2023/12/16 12:17:35;;;;;;;18.37;7.43;;;;;;;;;;4926314;28;20227;-85
2023/12/16 12:20:03;;;;;;;28.00;8.13;;;;;;;;;;4920224;28;20241;-86
2023/12/16 12:22:31;;;;;;;17.27;7.77;;;;;;;;;;4924222;28;20901;-87
2023/12/16 12:24:57;;;;;;;18.77;7.83;;;;;;;;;;4900049;29;20239;-88
2023/12/16 12:27:22;;;;;;;22.97;8.50;;;;;;;;;;4927350;28;20231;-86
2023/12/16 12:30:04;;;;;;;17.67;7.57;;;;;;;;;;4940123;28;20257;-86
2023/12/16 12:32:30;;;;;;;18.93;8.03;;;;;;;;;;4920075;28;20721;-86
2023/12/16 12:35:06;;;;;;;16.80;7.73;;;;;;;;;;4919586;28;20215;-86
2023/12/16 12:37:42;;;;;;;18.43;7.40;;;;;;;;;;4936989;29;20247;-87
2023/12/16 12:40:14;;;;;;;15.77;7.40;;;;;;;;;;4939612;28;20218;-85
2023/12/16 12:42:58;;;;;;;18.47;8.67;;;;;;;;;;4952629;28;20647;-86
2023/12/16 12:45:33;;;;;;;21.30;8.80;;;;;;;;;;4961145;28;20301;-85
2023/12/16 12:48:10;;;;;;;18.50;8.67;;;;;;;;;;4920392;29;20300;-86
2023/12/16 12:50:37;;;;;;;15.40;8.63;;;;;;;;;;4963476;28;20242;-85
2023/12/16 12:53:19;;;;;;;17.00;9.73;;;;;;;;;;4933718;28;20219;-87
2023/12/16 12:55:44;;;;;;;17.60;8.77;;;;;;;;;;4921507;29;20231;-86
2023/12/16 12:58:14;;;;;;;18.77;9.83;;;;;;;;;;4919793;28;20233;-85
2023/12/16 13:00:44;;;;;;;15.07;9.83;;;;;;;;;;4925015;29;20242;-86
2023/12/16 13:03:10;;;;;;;18.70;9.93;;;;;;;;;;4922888;28;20219;-85
2023/12/16 13:05:37;;;;;;;24.83;11.40;;;;;;;;;;4933050;28;20713;-84
2023/12/16 13:08:08;;;;;;;24.63;12.33;;;;;;;;;;4916017;28;20264;-85
2023/12/16 13:10:34;;;;;;;22.93;12.53;;;;;;;;;;4903487;29;20238;-83
2023/12/16 13:13:00;;;;;;;21.20;12.10;;;;;;;;;;4918972;28;20211;-84
2023/12/16 13:15:27;;;;;;;23.03;10.23;;;;;;;;;;4936702;28;20383;-84
2023/12/16 13:17:55;;;;;;;22.27;10.77;;;;;;;;;;4921533;29;20291;-85
2023/12/16 13:20:27;;;;;;;24.60;11.43;;;;;;;;;;4924559;28;20277;-85
2023/12/16 13:22:53;;;;;;;24.07;11.57;;;;;;;;;;4939802;28;20611;-87
2023/12/16 13:25:18;;;;;;;18.63;11.47;;;;;;;;;;4927765;28;20226;-85
2023/12/16 13:27:44;;;;;;;24.67;12.20;;;;;;;;;;4906639;29;20228;-87
2023/12/16 13:31:05;;;;;;;17.73;11.23;;;;;;;;;;4901693;29;20235;-86
2023/12/16 13:33:57;;;;;;;20.03;11.40;;;;;;;;;;4942100;28;20303;-87
2023/12/16 13:39:55;;;;;;;19.93;10.70;;;;;;;;;;4944603;28;20656;-88
2023/12/16 13:46:13;;;;;;;19.87;10.53;;;;;;;;;;4966121;28;20731;-86
2023/12/16 13:48:40;;;;;;;22.30;10.70;;;;;;;;;;4941560;28;20246;-86
2023/12/16 13:51:43;;;;;;;17.50;10.53;;;;;;;;;;4911964;28;20234;-87
2023/12/16 13:54:11;;;;;;;20.23;12.03;;;;;;;;;;4939721;28;20194;-87
2023/12/16 13:57:08;;;;;;;23.60;10.80;;;;;;;;;;4976497;28;20234;-86
2023/12/16 13:59:34;;;;;;;26.00;13.03;;;;;;;;;;4966582;28;20311;-87
2023/12/16 14:02:20;;;;;;;22.47;12.07;;;;;;;;;;4943460;29;20325;-86
2023/12/16 14:13:38;;;;;;;19.77;12.83;;;;;;;;;;4977252;28;20219;-88
2023/12/16 14:16:04;;;;;;;19.40;13.07;;;;;;;;;;4960134;28;20226;-87
2023/12/16 14:18:30;;;;;;;22.03;12.00;;;;;;;;;;4923909;28;20227;-86
2023/12/16 14:20:57;;;;;;;20.30;11.70;;;;;;;;;;4930314;29;20237;-88
2023/12/16 14:23:25;;;;;;;15.93;11.10;;;;;;;;;;4909385;28;20224;-88
2023/12/16 14:25:51;;;;;;;15.30;11.23;;;;;;;;;;4922742;29;20267;-87
2023/12/16 14:28:24;;;;;;;16.80;11.40;;;;;;;;;;4926615;28;20219;-87
2023/12/16 14:30:51;;;;;;;23.10;12.37;;;;;;;;;;4915915;28;20222;-87
2023/12/16 14:33:19;;;;;;;23.20;12.57;;;;;;;;;;4910961;28;20215;-88
2023/12/16 14:35:47;;;;;;;20.93;12.43;;;;;;;;;;4920419;29;20248;-88
2023/12/16 14:38:13;;;;;;;13.50;11.47;;;;;;;;;;4935185;28;20285;-87
2023/12/16 14:40:40;;;;;;;21.87;12.17;;;;;;;;;;4940168;28;20272;-87
2023/12/16 14:43:05;;;;;;;19.30;13.00;;;;;;;;;;4930616;28;20247;-87
2023/12/16 14:45:33;;;;;;;15.67;12.20;;;;;;;;;;4923694;28;20235;-87
2023/12/16 14:48:03;;;;;;;19.83;12.10;;;;;;;;;;4936988;29;20231;-86
2023/12/16 14:50:28;;;;;;;14.53;11.63;;;;;;;;;;4936359;28;20853;-87
2023/12/16 14:52:54;;;;;;;15.73;12.57;;;;;;;;;;4930712;29;20234;-87
2023/12/16 14:55:20;;;;;;;15.23;11.90;;;;;;;;;;4953414;28;20223;-89